Time;durP1;ratioP1;P1;durP2;ratioP2;P2;SDS_P1;SDS_P2;PMS_P1;PMS_P2;Temp;Humidity;BMP_temperature;BMP_pressure;BME280_temperature;BME280_humidity;BME280_pressure;Samples;Min_cycle;Max_cycle;Signal;HPM_P1;HPM_P2
2023/01/07 00:00:00;;;;;;;143.80;47.58;;;;;;;;;;5107790;28;20036;-68
2023/01/07 00:02:26;;;;;;;153.35;49.58;;;;;;;;;;5095103;28;20480;-68
2023/01/07 00:04:52;;;;;;;173.95;52.45;;;;;;;;;;5108086;28;20499;-68
2023/01/07 00:07:19;;;;;;;164.60;49.83;;;;;;;;;;5105769;28;20039;-69
2023/01/07 00:09:45;;;;;;;150.85;48.85;;;;;;;;;;5106493;28;20040;-68
2023/01/07 00:12:11;;;;;;;157.88;50.38;;;;;;;;;;5107928;28;20043;-68
2023/01/07 00:14:37;;;;;;;134.10;45.00;;;;;;;;;;5106164;28;20086;-68
2023/01/07 00:17:03;;;;;;;126.03;43.22;;;;;;;;;;5107219;28;20062;-68
2023/01/07 00:19:29;;;;;;;133.40;41.65;;;;;;;;;;5108459;28;20054;-69
2023/01/07 00:21:55;;;;;;;107.65;36.92;;;;;;;;;;5095009;28;20046;-68
2023/01/07 00:24:22;;;;;;;105.85;36.50;;;;;;;;;;5096293;28;20127;-69
2023/01/07 00:26:48;;;;;;;88.82;34.05;;;;;;;;;;5094150;28;20048;-68
2023/01/07 00:29:15;;;;;;;106.03;37.58;;;;;;;;;;5096330;28;20479;-68
2023/01/07 00:31:41;;;;;;;105.30;37.17;;;;;;;;;;5099206;28;20122;-68
2023/01/07 00:34:08;;;;;;;93.70;33.53;;;;;;;;;;5106265;28;20031;-66
2023/01/07 00:36:37;;;;;;;98.03;34.70;;;;;;;;;;5106355;28;20043;-68
2023/01/07 00:39:06;;;;;;;104.18;35.95;;;;;;;;;;5096850;28;20075;-68
2023/01/07 00:41:32;;;;;;;91.75;33.70;;;;;;;;;;5090975;28;20047;-68
2023/01/07 00:43:58;;;;;;;99.43;35.38;;;;;;;;;;5102898;28;20039;-68
2023/01/07 00:46:25;;;;;;;98.45;34.83;;;;;;;;;;5109138;28;20054;-68
2023/01/07 00:48:51;;;;;;;93.13;35.88;;;;;;;;;;5093623;28;20426;-68
2023/01/07 00:51:18;;;;;;;100.75;37.40;;;;;;;;;;5107600;28;20079;-69
2023/01/07 00:53:44;;;;;;;91.13;35.45;;;;;;;;;;5110783;28;20057;-68
2023/01/07 00:56:11;;;;;;;89.60;36.05;;;;;;;;;;5110711;28;20058;-68
2023/01/07 00:58:37;;;;;;;94.72;35.97;;;;;;;;;;5094930;28;20043;-68
2023/01/07 01:01:03;;;;;;;92.80;35.38;;;;;;;;;;5095991;28;20059;-69
2023/01/07 01:03:30;;;;;;;92.35;36.20;;;;;;;;;;5109296;28;20510;-69
2023/01/07 01:06:12;;;;;;;86.30;35.42;;;;;;;;;;5109165;28;20040;-69
2023/01/07 01:08:40;;;;;;;90.18;36.33;;;;;;;;;;5110393;28;20043;-69
2023/01/07 01:11:07;;;;;;;87.75;36.25;;;;;;;;;;5109533;28;20086;-69
2023/01/07 01:13:34;;;;;;;95.18;37.28;;;;;;;;;;5109485;28;20047;-69
2023/01/07 01:16:00;;;;;;;91.18;37.50;;;;;;;;;;5094741;28;20122;-69
2023/01/07 01:18:26;;;;;;;88.43;37.13;;;;;;;;;;5109727;28;20044;-69
2023/01/07 01:20:53;;;;;;;88.88;37.95;;;;;;;;;;5101862;28;20090;-69
2023/01/07 01:23:20;;;;;;;90.72;39.92;;;;;;;;;;5108760;28;20093;-69
2023/01/07 01:25:46;;;;;;;91.95;38.90;;;;;;;;;;5108523;28;20035;-69
2023/01/07 01:28:12;;;;;;;89.70;38.72;;;;;;;;;;5109367;28;20055;-69
2023/01/07 01:30:38;;;;;;;89.85;38.58;;;;;;;;;;5108880;28;20047;-69
2023/01/07 01:33:04;;;;;;;84.53;39.92;;;;;;;;;;5108834;28;20059;-69
2023/01/07 01:35:30;;;;;;;85.53;41.20;;;;;;;;;;5109195;28;20031;-69
2023/01/07 01:37:59;;;;;;;83.05;38.60;;;;;;;;;;5106575;28;20055;-69
2023/01/07 01:40:28;;;;;;;81.70;39.33;;;;;;;;;;5098005;28;20096;-69
2023/01/07 01:42:54;;;;;;;78.55;39.53;;;;;;;;;;5101365;28;20055;-69
2023/01/07 01:45:20;;;;;;;79.05;40.22;;;;;;;;;;5108712;28;20051;-69
2023/01/07 01:47:49;;;;;;;75.55;38.47;;;;;;;;;;5096370;28;20047;-69
2023/01/07 01:50:19;;;;;;;76.45;40.97;;;;;;;;;;5109142;28;20422;-69
2023/01/07 01:52:48;;;;;;;75.05;40.50;;;;;;;;;;5107794;28;20043;-69
2023/01/07 01:55:16;;;;;;;68.95;37.95;;;;;;;;;;5108722;28;20035;-69
2023/01/07 01:57:42;;;;;;;66.68;38.95;;;;;;;;;;5091710;28;20044;-68
2023/01/07 02:00:09;;;;;;;59.67;36.13;;;;;;;;;;5098075;28;20047;-69
2023/01/07 02:02:40;;;;;;;55.97;35.78;;;;;;;;;;5098194;28;20104;-68
2023/01/07 02:05:07;;;;;;;58.42;37.08;;;;;;;;;;5097847;28;20090;-69
2023/01/07 02:07:33;;;;;;;64.63;39.70;;;;;;;;;;5107767;28;20039;-69
2023/01/07 02:10:01;;;;;;;53.05;34.33;;;;;;;;;;5103999;28;20048;-69
2023/01/07 02:12:45;;;;;;;55.38;36.45;;;;;;;;;;5108819;28;20528;-69
2023/01/07 02:15:11;;;;;;;;;;;;;;;;;;5092066;28;20119;-69
2023/01/07 02:17:52;;;;;;;51.45;35.30;;;;;;;;;;5108377;28;20355;-69
2023/01/07 02:20:26;;;;;;;51.13;34.47;;;;;;;;;;5106829;28;20119;-69
2023/01/07 02:23:04;;;;;;;47.83;34.25;;;;;;;;;;5106131;28;20100;-69
2023/01/07 02:25:43;;;;;;;45.28;32.72;;;;;;;;;;5107998;28;20054;-69
2023/01/07 02:28:22;;;;;;;42.72;31.33;;;;;;;;;;5107503;28;20524;-69
2023/01/07 02:31:08;;;;;;;40.13;29.42;;;;;;;;;;5108996;28;20444;-69
2023/01/07 02:33:38;;;;;;;41.63;30.33;;;;;;;;;;5102407;28;20167;-69
2023/01/07 02:36:04;;;;;;;37.13;28.92;;;;;;;;;;5092717;28;20469;-69
2023/01/07 02:38:52;;;;;;;37.78;28.33;;;;;;;;;;5107946;28;20380;-69
2023/01/07 02:41:27;;;;;;;39.58;29.42;;;;;;;;;;5107594;28;20048;-68
2023/01/07 02:43:59;;;;;;;35.47;28.20;;;;;;;;;;5093862;28;20074;-68
2023/01/07 02:46:29;;;;;;;38.92;28.42;;;;;;;;;;5107823;28;20039;-69
2023/01/07 02:48:58;;;;;;;39.67;28.58;;;;;;;;;;5107536;28;20114;-69
2023/01/07 02:51:31;;;;;;;36.50;27.65;;;;;;;;;;5107957;28;20043;-68
2023/01/07 02:53:57;;;;;;;34.70;28.55;;;;;;;;;;5108524;28;20244;-68
2023/01/07 02:56:40;;;;;;;32.67;25.92;;;;;;;;;;5105330;28;20032;-69
2023/01/07 02:59:21;;;;;;;37.20;25.73;;;;;;;;;;5106435;28;20054;-68
2023/01/07 03:02:12;;;;;;;32.90;25.63;;;;;;;;;;5109967;28;20436;-68
2023/01/07 03:04:46;;;;;;;31.05;23.48;;;;;;;;;;5112195;28;20054;-69
2023/01/07 03:07:13;;;;;;;26.48;21.50;;;;;;;;;;5112910;28;20092;-69
2023/01/07 03:09:40;;;;;;;26.10;21.38;;;;;;;;;;5098656;28;20051;-69
2023/01/07 03:12:12;;;;;;;28.90;21.77;;;;;;;;;;5111190;28;20176;-69
2023/01/07 03:14:45;;;;;;;26.10;20.33;;;;;;;;;;5111695;28;20067;-69
2023/01/07 03:17:13;;;;;;;25.15;20.92;;;;;;;;;;5111029;28;20076;-69
2023/01/07 03:19:42;;;;;;;23.60;19.48;;;;;;;;;;5109499;28;20409;-69
2023/01/07 03:22:09;;;;;;;24.90;18.98;;;;;;;;;;5112338;28;20368;-68
2023/01/07 03:24:35;;;;;;;28.55;20.67;;;;;;;;;;5100860;28;20070;-68
2023/01/07 03:27:03;;;;;;;25.52;18.70;;;;;;;;;;5111447;28;20198;-68
2023/01/07 03:29:31;;;;;;;25.45;20.20;;;;;;;;;;5111574;28;20369;-68
2023/01/07 03:32:02;;;;;;;24.52;19.50;;;;;;;;;;5110726;28;20066;-68
2023/01/07 03:34:29;;;;;;;23.35;19.50;;;;;;;;;;5109606;28;20062;-69
2023/01/07 03:36:57;;;;;;;23.30;19.48;;;;;;;;;;5094769;28;20110;-69
2023/01/07 03:39:26;;;;;;;25.90;18.33;;;;;;;;;;5110219;28;20071;-69
2023/01/07 03:44:37;;;;;;;23.23;19.02;;;;;;;;;;5103631;28;20127;-69
2023/01/07 03:47:03;;;;;;;22.00;17.20;;;;;;;;;;5100400;28;20059;-69
2023/01/07 03:49:30;;;;;;;26.15;20.40;;;;;;;;;;5101973;28;20071;-69
2023/01/07 03:51:56;;;;;;;26.00;19.88;;;;;;;;;;5104423;28;20128;-69
2023/01/07 03:54:22;;;;;;;24.45;18.98;;;;;;;;;;5091758;28;20051;-69
2023/01/07 03:56:48;;;;;;;21.38;17.73;;;;;;;;;;5092136;28;20047;-68
2023/01/07 03:59:15;;;;;;;24.85;19.23;;;;;;;;;;5089459;28;20067;-68
2023/01/07 04:01:41;;;;;;;23.88;19.25;;;;;;;;;;5100176;28;20046;-68
2023/01/07 04:04:07;;;;;;;24.10;18.63;;;;;;;;;;5099041;28;20040;-68
2023/01/07 04:06:33;;;;;;;27.95;19.70;;;;;;;;;;5098444;28;20047;-68
2023/01/07 04:08:59;;;;;;;22.13;18.15;;;;;;;;;;5109165;28;20039;-68
2023/01/07 04:11:25;;;;;;;23.90;18.10;;;;;;;;;;5101482;28;20403;-68
2023/01/07 04:13:52;;;;;;;25.52;18.83;;;;;;;;;;5092953;28;20371;-68
2023/01/07 04:16:18;;;;;;;21.55;16.55;;;;;;;;;;5095561;28;20043;-68
2023/01/07 04:18:44;;;;;;;24.52;18.90;;;;;;;;;;5092969;28;20054;-68
2023/01/07 04:21:10;;;;;;;23.30;18.85;;;;;;;;;;5091400;28;20040;-68
2023/01/07 04:23:36;;;;;;;27.65;21.35;;;;;;;;;;5092769;28;20097;-69
2023/01/07 04:26:02;;;;;;;27.35;21.38;;;;;;;;;;5098563;28;20122;-69
2023/01/07 04:28:28;;;;;;;28.98;21.88;;;;;;;;;;5095518;28;20036;-68
2023/01/07 04:30:57;;;;;;;25.10;20.70;;;;;;;;;;5097778;28;20101;-69
2023/01/07 04:33:23;;;;;;;29.98;21.63;;;;;;;;;;5096502;28;20035;-69
2023/01/07 04:35:50;;;;;;;29.50;22.02;;;;;;;;;;5100342;28;20126;-69
2023/01/07 04:38:16;;;;;;;29.25;21.80;;;;;;;;;;5097794;28;20039;-68
2023/01/07 04:40:42;;;;;;;29.60;22.15;;;;;;;;;;5100467;28;20047;-68
2023/01/07 04:43:09;;;;;;;31.13;23.65;;;;;;;;;;5109530;28;20082;-69
2023/01/07 04:45:35;;;;;;;29.10;22.80;;;;;;;;;;5097452;28;20575;-68
2023/01/07 04:48:01;;;;;;;32.38;23.95;;;;;;;;;;5110649;28;20039;-69
2023/01/07 04:50:27;;;;;;;31.40;22.60;;;;;;;;;;5109175;28;20111;-68
2023/01/07 04:52:53;;;;;;;30.98;23.08;;;;;;;;;;5109819;28;20039;-68
2023/01/07 04:55:20;;;;;;;30.50;24.30;;;;;;;;;;5100659;28;20035;-69
2023/01/07 04:57:46;;;;;;;41.08;24.55;;;;;;;;;;5109254;28;20044;-69
2023/01/07 05:00:12;;;;;;;34.00;25.25;;;;;;;;;;5089824;28;20081;-68
2023/01/07 05:02:39;;;;;;;32.22;25.20;;;;;;;;;;5103229;27;20039;-67
2023/01/07 05:05:05;;;;;;;29.27;24.50;;;;;;;;;;5103942;27;20502;-68
2023/01/07 05:07:31;;;;;;;31.20;24.08;;;;;;;;;;5105157;28;20065;-68
2023/01/07 05:09:57;;;;;;;32.47;23.73;;;;;;;;;;5105321;28;20415;-68
2023/01/07 05:12:24;;;;;;;35.05;24.63;;;;;;;;;;5106674;28;20035;-68
2023/01/07 05:14:50;;;;;;;37.55;24.80;;;;;;;;;;5108042;28;20047;-68
2023/01/07 05:17:16;;;;;;;33.47;25.40;;;;;;;;;;5104728;27;20065;-68
2023/01/07 05:19:42;;;;;;;30.55;23.35;;;;;;;;;;5106919;28;20036;-68
2023/01/07 05:22:09;;;;;;;33.60;25.38;;;;;;;;;;5104608;28;20050;-68
2023/01/07 05:24:35;;;;;;;32.35;23.83;;;;;;;;;;5105581;28;20048;-68
2023/01/07 05:27:01;;;;;;;35.45;24.42;;;;;;;;;;5105541;28;20110;-68
2023/01/07 05:29:28;;;;;;;37.78;25.90;;;;;;;;;;5105514;28;20032;-68
2023/01/07 05:31:54;;;;;;;32.05;23.30;;;;;;;;;;5088445;28;20066;-68
2023/01/07 05:34:20;;;;;;;32.90;23.08;;;;;;;;;;5089889;28;20047;-68
2023/01/07 05:36:46;;;;;;;31.27;23.23;;;;;;;;;;5106060;28;20470;-68
2023/01/07 05:39:12;;;;;;;33.33;23.55;;;;;;;;;;5092330;28;20048;-68
2023/01/07 05:41:38;;;;;;;33.60;23.13;;;;;;;;;;5095460;28;20091;-68
2023/01/07 05:44:04;;;;;;;32.38;22.90;;;;;;;;;;5097179;28;20047;-68
2023/01/07 05:46:31;;;;;;;30.10;22.88;;;;;;;;;;5092250;28;20507;-68
2023/01/07 05:48:57;;;;;;;33.55;22.58;;;;;;;;;;5100636;28;20047;-68
2023/01/07 05:51:23;;;;;;;30.33;22.98;;;;;;;;;;5098264;28;20051;-68
2023/01/07 05:53:49;;;;;;;33.08;22.42;;;;;;;;;;5093728;28;20036;-68
2023/01/07 05:56:15;;;;;;;30.42;22.38;;;;;;;;;;5089459;28;20150;-68
2023/01/07 05:58:41;;;;;;;29.80;22.70;;;;;;;;;;5090141;28;20085;-68
2023/01/07 06:01:07;;;;;;;31.52;22.13;;;;;;;;;;5096451;28;20074;-68
2023/01/07 06:03:33;;;;;;;33.50;21.50;;;;;;;;;;5090267;28;20063;-67
2023/01/07 06:06:05;;;;;;;31.70;21.73;;;;;;;;;;5086270;28;20467;-68
2023/01/07 06:08:34;;;;;;;29.55;22.15;;;;;;;;;;5089138;28;20135;-68
2023/01/07 06:11:00;;;;;;;29.77;21.65;;;;;;;;;;5095166;28;20103;-68
2023/01/07 06:13:27;;;;;;;33.35;22.08;;;;;;;;;;5091185;28;20291;-68
2023/01/07 06:15:53;;;;;;;29.52;21.38;;;;;;;;;;5094186;28;20059;-68
2023/01/07 06:18:19;;;;;;;31.58;22.02;;;;;;;;;;5097119;28;20505;-68
2023/01/07 06:20:45;;;;;;;31.88;21.50;;;;;;;;;;5099428;28;20377;-68
2023/01/07 06:23:12;;;;;;;31.02;21.27;;;;;;;;;;5096496;28;20364;-68
2023/01/07 06:25:38;;;;;;;32.72;22.13;;;;;;;;;;5095663;28;20047;-68
2023/01/07 06:28:04;;;;;;;32.10;21.50;;;;;;;;;;5089338;28;20051;-68
2023/01/07 06:30:30;;;;;;;29.45;20.58;;;;;;;;;;5096188;28;20483;-68
2023/01/07 06:32:56;;;;;;;26.98;21.63;;;;;;;;;;5096523;28;20500;-68
2023/01/07 06:35:22;;;;;;;26.25;19.48;;;;;;;;;;5088946;28;21285;-68
2023/01/07 06:37:49;;;;;;;30.08;20.35;;;;;;;;;;5101795;28;20039;-68
2023/01/07 06:40:15;;;;;;;30.80;20.83;;;;;;;;;;5094985;28;20052;-68
2023/01/07 06:42:41;;;;;;;31.58;21.25;;;;;;;;;;5090322;28;20127;-68
2023/01/07 06:45:08;;;;;;;27.15;19.40;;;;;;;;;;5092110;28;20132;-68
2023/01/07 06:47:34;;;;;;;23.83;17.58;;;;;;;;;;5090189;28;20067;-68
2023/01/07 06:50:00;;;;;;;26.33;18.15;;;;;;;;;;5092707;28;20076;-68
2023/01/07 06:52:26;;;;;;;24.15;17.40;;;;;;;;;;5092772;28;20055;-68
2023/01/07 06:54:53;;;;;;;27.85;18.10;;;;;;;;;;5095896;28;20337;-68
2023/01/07 06:57:19;;;;;;;25.63;18.85;;;;;;;;;;5092684;28;20495;-68
2023/01/07 06:59:45;;;;;;;31.10;19.70;;;;;;;;;;5095150;28;20055;-68
2023/01/07 07:02:17;;;;;;;26.38;18.17;;;;;;;;;;5092715;28;20048;-68
2023/01/07 07:04:43;;;;;;;27.77;19.45;;;;;;;;;;5097993;28;20129;-68
2023/01/07 07:07:10;;;;;;;31.45;17.77;;;;;;;;;;5097309;28;20134;-68
2023/01/07 07:09:36;;;;;;;24.48;17.75;;;;;;;;;;5095037;28;20035;-68
2023/01/07 07:12:02;;;;;;;22.08;17.67;;;;;;;;;;5091938;28;20052;-68
2023/01/07 07:14:28;;;;;;;28.00;17.45;;;;;;;;;;5095798;28;20031;-68
2023/01/07 07:16:54;;;;;;;28.98;18.10;;;;;;;;;;5089527;28;20052;-68
2023/01/07 07:19:20;;;;;;;24.80;17.17;;;;;;;;;;5097241;28;20040;-68
2023/01/07 07:21:47;;;;;;;24.23;17.10;;;;;;;;;;5100974;28;20079;-68
2023/01/07 07:24:13;;;;;;;24.85;17.30;;;;;;;;;;5098076;28;20118;-68
2023/01/07 07:26:39;;;;;;;28.02;17.02;;;;;;;;;;5092269;28;20131;-68
2023/01/07 07:29:05;;;;;;;23.35;17.23;;;;;;;;;;5090247;28;20051;-68
2023/01/07 07:31:32;;;;;;;23.13;16.52;;;;;;;;;;5086850;28;20480;-69
2023/01/07 07:33:58;;;;;;;20.98;16.13;;;;;;;;;;5089429;28;20039;-68
2023/01/07 07:36:24;;;;;;;22.80;15.80;;;;;;;;;;5090628;28;20036;-68
2023/01/07 07:38:50;;;;;;;27.40;18.02;;;;;;;;;;5090984;28;20056;-69
2023/01/07 07:41:16;;;;;;;31.75;15.85;;;;;;;;;;5104038;28;20055;-68
2023/01/07 07:43:42;;;;;;;21.40;15.60;;;;;;;;;;5094957;28;20044;-68
2023/01/07 07:46:08;;;;;;;24.10;15.63;;;;;;;;;;5108528;27;20047;-69
2023/01/07 07:48:34;;;;;;;24.67;16.33;;;;;;;;;;5107457;27;20032;-69
2023/01/07 07:51:01;;;;;;;22.02;14.10;;;;;;;;;;5094683;28;20118;-69
2023/01/07 07:53:27;;;;;;;19.23;14.50;;;;;;;;;;5108422;28;20046;-69
2023/01/07 07:55:53;;;;;;;20.23;14.70;;;;;;;;;;5109021;28;20075;-69
2023/01/07 07:58:19;;;;;;;19.23;14.15;;;;;;;;;;5095158;28;20039;-69
2023/01/07 08:00:45;;;;;;;21.05;14.45;;;;;;;;;;5105621;27;20402;-68
2023/01/07 08:03:11;;;;;;;24.77;13.85;;;;;;;;;;5103288;27;20340;-68
2023/01/07 08:05:40;;;;;;;23.70;13.93;;;;;;;;;;5105747;27;20039;-69
2023/01/07 08:08:08;;;;;;;19.33;13.07;;;;;;;;;;5105494;27;20084;-68
2023/01/07 08:10:34;;;;;;;17.90;12.98;;;;;;;;;;5105331;28;20131;-69
2023/01/07 08:13:01;;;;;;;20.58;13.23;;;;;;;;;;5092497;28;20039;-69
2023/01/07 08:15:27;;;;;;;20.33;12.60;;;;;;;;;;5105639;27;20054;-69
2023/01/07 08:18:00;;;;;;;18.92;11.63;;;;;;;;;;5105796;28;20101;-69
2023/01/07 08:20:26;;;;;;;17.03;11.27;;;;;;;;;;5104239;28;20051;-69
2023/01/07 08:22:53;;;;;;;18.55;11.85;;;;;;;;;;5104431;27;20368;-69
2023/01/07 08:25:19;;;;;;;18.10;10.65;;;;;;;;;;5106246;27;20043;-69
2023/01/07 08:27:45;;;;;;;15.93;10.45;;;;;;;;;;5105815;27;20427;-69
2023/01/07 08:30:11;;;;;;;17.05;9.77;;;;;;;;;;5105113;27;20502;-69
2023/01/07 08:32:37;;;;;;;14.13;9.82;;;;;;;;;;5087916;28;20459;-69
2023/01/07 08:35:04;;;;;;;15.15;9.02;;;;;;;;;;5104561;28;20444;-68
2023/01/07 08:37:31;;;;;;;16.98;9.73;;;;;;;;;;5105719;28;20067;-68
2023/01/07 08:39:57;;;;;;;15.63;9.48;;;;;;;;;;5103997;27;20044;-68
2023/01/07 08:42:23;;;;;;;12.82;9.07;;;;;;;;;;5090522;28;20090;-68
2023/01/07 08:44:49;;;;;;;16.05;9.57;;;;;;;;;;5095120;28;20055;-68
2023/01/07 08:47:15;;;;;;;15.40;9.38;;;;;;;;;;5088484;28;20377;-69
2023/01/07 08:49:41;;;;;;;15.50;8.85;;;;;;;;;;5091116;28;20398;-68
2023/01/07 08:52:07;;;;;;;14.35;9.13;;;;;;;;;;5095489;28;21268;-68
2023/01/07 08:54:34;;;;;;;13.70;8.05;;;;;;;;;;5097254;28;20122;-68
2023/01/07 08:57:00;;;;;;;13.40;8.60;;;;;;;;;;5093065;28;20039;-68
2023/01/07 08:59:26;;;;;;;12.52;8.85;;;;;;;;;;5084584;28;20404;-68
2023/01/07 09:01:52;;;;;;;15.95;8.38;;;;;;;;;;5089544;28;20396;-68
2023/01/07 09:04:18;;;;;;;11.80;8.18;;;;;;;;;;5089611;28;20036;-68
2023/01/07 09:06:44;;;;;;;13.20;7.90;;;;;;;;;;5100056;28;20044;-68
2023/01/07 09:09:13;;;;;;;13.50;7.65;;;;;;;;;;5093793;28;20476;-68
2023/01/07 09:11:39;;;;;;;12.70;7.75;;;;;;;;;;5095094;28;20044;-68
2023/01/07 09:14:05;;;;;;;10.88;7.35;;;;;;;;;;5080577;28;20459;-68
2023/01/07 09:16:31;;;;;;;13.18;7.78;;;;;;;;;;5090393;28;20046;-69
2023/01/07 09:18:57;;;;;;;11.35;7.25;;;;;;;;;;5089441;28;20044;-68
2023/01/07 09:21:23;;;;;;;13.35;7.82;;;;;;;;;;5087167;28;20040;-67
2023/01/07 09:23:50;;;;;;;13.60;7.30;;;;;;;;;;5085048;28;20043;-68
2023/01/07 09:26:16;;;;;;;11.73;7.20;;;;;;;;;;5088801;28;21653;-68
2023/01/07 09:28:42;;;;;;;11.88;6.60;;;;;;;;;;5085969;28;20044;-67
2023/01/07 09:31:08;;;;;;;15.38;7.47;;;;;;;;;;5088532;28;20127;-67
2023/01/07 09:33:34;;;;;;;11.57;6.50;;;;;;;;;;5087232;28;20428;-68
2023/01/07 09:36:01;;;;;;;11.75;6.63;;;;;;;;;;5088048;28;20047;-68
2023/01/07 09:38:27;;;;;;;10.73;6.47;;;;;;;;;;5095708;28;20058;-67
2023/01/07 09:40:53;;;;;;;9.30;5.68;;;;;;;;;;5101432;27;20185;-67
2023/01/07 09:43:24;;;;;;;10.60;5.88;;;;;;;;;;5107110;28;20035;-68
2023/01/07 09:45:52;;;;;;;10.63;5.70;;;;;;;;;;5105819;28;20091;-67
2023/01/07 09:48:26;;;;;;;10.48;5.82;;;;;;;;;;5102754;28;20134;-67
2023/01/07 09:50:59;;;;;;;13.27;5.43;;;;;;;;;;5103436;28;20196;-67
2023/01/07 09:53:27;;;;;;;6.38;4.60;;;;;;;;;;5094731;28;20041;-66
2023/01/07 09:55:54;;;;;;;7.55;4.22;;;;;;;;;;5101083;28;20118;-67
2023/01/07 09:58:21;;;;;;;8.65;4.85;;;;;;;;;;5104194;27;20044;-66
2023/01/07 10:00:54;;;;;;;10.63;4.85;;;;;;;;;;5103678;28;20044;-67
2023/01/07 10:03:24;;;;;;;7.45;4.80;;;;;;;;;;5104856;28;20128;-67
2023/01/07 10:05:59;;;;;;;12.88;5.90;;;;;;;;;;5102909;27;20051;-68
2023/01/07 10:08:25;;;;;;;15.70;6.85;;;;;;;;;;5103061;28;20127;-68
2023/01/07 10:10:56;;;;;;;15.52;7.45;;;;;;;;;;5101806;28;20031;-68
2023/01/07 10:13:44;;;;;;;12.07;7.30;;;;;;;;;;5100263;28;20512;-67
2023/01/07 10:16:10;;;;;;;14.13;6.13;;;;;;;;;;5106423;28;20066;-67
2023/01/07 10:18:46;;;;;;;11.10;5.00;;;;;;;;;;5100923;28;20522;-67
2023/01/07 10:21:16;;;;;;;10.65;4.28;;;;;;;;;;5102429;28;20067;-67
2023/01/07 10:23:43;;;;;;;8.45;4.32;;;;;;;;;;5106898;27;20048;-68
2023/01/07 10:26:16;;;;;;;10.15;4.00;;;;;;;;;;5108637;28;20048;-68
2023/01/07 10:28:53;;;;;;;6.82;3.70;;;;;;;;;;5109693;28;20042;-68
2023/01/07 10:31:22;;;;;;;6.25;3.28;;;;;;;;;;5109170;28;20131;-68
2023/01/07 10:33:49;;;;;;;8.75;2.85;;;;;;;;;;5107827;28;20096;-68
2023/01/07 10:36:25;;;;;;;8.25;3.50;;;;;;;;;;5109718;28;20185;-68
2023/01/07 10:38:56;;;;;;;8.23;2.95;;;;;;;;;;5089505;28;20071;-68
2023/01/07 10:41:26;;;;;;;7.75;3.78;;;;;;;;;;5108792;28;20086;-67
2023/01/07 10:43:58;;;;;;;9.77;3.40;;;;;;;;;;5091831;28;20056;-68
2023/01/07 10:46:32;;;;;;;5.18;2.90;;;;;;;;;;5108699;28;20122;-67
2023/01/07 10:49:08;;;;;;;6.95;3.58;;;;;;;;;;5108330;28;20100;-68
2023/01/07 10:51:34;;;;;;;6.70;3.55;;;;;;;;;;5109022;28;20076;-67
2023/01/07 10:54:17;;;;;;;7.03;3.13;;;;;;;;;;5091646;28;20047;-68
2023/01/07 10:56:47;;;;;;;7.50;3.13;;;;;;;;;;5095665;28;20193;-68
2023/01/07 10:59:15;;;;;;;8.93;3.55;;;;;;;;;;5091572;28;20127;-68
2023/01/07 11:01:44;;;;;;;5.85;3.00;;;;;;;;;;5108357;28;20036;-68
2023/01/07 11:04:12;;;;;;;8.27;3.50;;;;;;;;;;5108824;28;20571;-68
2023/01/07 11:06:40;;;;;;;6.88;3.15;;;;;;;;;;5096489;28;20122;-68
2023/01/07 11:09:09;;;;;;;6.32;3.13;;;;;;;;;;5090436;28;20056;-68
2023/01/07 11:11:36;;;;;;;5.30;2.72;;;;;;;;;;5108597;28;20485;-68
2023/01/07 11:14:04;;;;;;;5.63;2.45;;;;;;;;;;5108952;28;20051;-68
2023/01/07 11:16:33;;;;;;;5.43;2.88;;;;;;;;;;5094973;28;20036;-68
2023/01/07 11:19:03;;;;;;;6.75;2.47;;;;;;;;;;5092449;28;20492;-68
2023/01/07 11:21:31;;;;;;;6.57;2.35;;;;;;;;;;5091724;28;20118;-67
2023/01/07 11:23:57;;;;;;;5.10;2.30;;;;;;;;;;5111476;28;20126;-68
2023/01/07 11:26:26;;;;;;;5.90;2.67;;;;;;;;;;5112358;28;20036;-68
2023/01/07 11:28:53;;;;;;;7.78;2.47;;;;;;;;;;5099629;28;20036;-68
2023/01/07 11:31:21;;;;;;;4.57;2.08;;;;;;;;;;5098596;28;20043;-67
2023/01/07 11:33:49;;;;;;;4.57;2.17;;;;;;;;;;5097609;28;20055;-68
2023/01/07 11:36:15;;;;;;;7.72;3.42;;;;;;;;;;5112306;28;20118;-68
2023/01/07 11:38:42;;;;;;;3.97;1.90;;;;;;;;;;5094410;28;20089;-68
2023/01/07 11:41:20;;;;;;;4.72;2.08;;;;;;;;;;5112959;28;20100;-67
2023/01/07 11:43:48;;;;;;;4.22;2.00;;;;;;;;;;5098916;28;20178;-67
2023/01/07 11:46:15;;;;;;;3.50;1.73;;;;;;;;;;5112786;28;20054;-68
2023/01/07 11:48:51;;;;;;;5.00;1.88;;;;;;;;;;5108322;28;20044;-68
2023/01/07 11:51:18;;;;;;;5.28;1.92;;;;;;;;;;5106713;28;20561;-68
2023/01/07 11:53:46;;;;;;;4.22;2.10;;;;;;;;;;5111133;28;20573;-68
2023/01/07 11:56:21;;;;;;;2.35;1.30;;;;;;;;;;5112031;28;20118;-67
2023/01/07 11:58:50;;;;;;;6.13;3.10;;;;;;;;;;5111125;28;20032;-68
2023/01/07 12:01:18;;;;;;;3.20;1.83;;;;;;;;;;5111823;28;20150;-67
2023/01/07 12:03:53;;;;;;;4.57;2.15;;;;;;;;;;5112554;27;20092;-67
2023/01/07 12:06:22;;;;;;;4.60;1.60;;;;;;;;;;5111672;27;20043;-67
2023/01/07 12:08:58;;;;;;;4.93;2.00;;;;;;;;;;5104393;27;20040;-66
2023/01/07 12:11:30;;;;;;;5.53;2.30;;;;;;;;;;5106937;27;20097;-67
2023/01/07 12:13:56;;;;;;;4.35;2.10;;;;;;;;;;5107483;28;20075;-69
2023/01/07 12:16:27;;;;;;;3.60;1.95;;;;;;;;;;5107914;28;20074;-68
2023/01/07 12:19:12;;;;;;;3.38;1.80;;;;;;;;;;5106865;28;20069;-67
2023/01/07 12:21:47;;;;;;;4.78;1.88;;;;;;;;;;5105990;27;20547;-68
2023/01/07 12:24:30;;;;;;;4.55;2.08;;;;;;;;;;5095020;28;20048;-67
2023/01/07 12:27:13;;;;;;;4.38;1.70;;;;;;;;;;5104820;28;20056;-67
2023/01/07 12:29:47;;;;;;;4.95;1.80;;;;;;;;;;5107014;28;20067;-68
2023/01/07 12:32:23;;;;;;;4.25;1.40;;;;;;;;;;5104969;28;20085;-68
2023/01/07 12:34:53;;;;;;;3.88;1.75;;;;;;;;;;5103131;28;20130;-68
2023/01/07 12:37:20;;;;;;;3.47;1.63;;;;;;;;;;5106244;27;20048;-65
2023/01/07 12:39:46;;;;;;;5.45;1.45;;;;;;;;;;5101882;28;20066;-66
2023/01/07 12:42:16;;;;;;;4.60;1.55;;;;;;;;;;5100339;28;20048;-66
2023/01/07 12:44:46;;;;;;;3.35;1.60;;;;;;;;;;5098483;28;20047;-66
2023/01/07 12:47:18;;;;;;;2.97;1.25;;;;;;;;;;5106761;27;20615;-66
2023/01/07 12:49:55;;;;;;;2.28;1.10;;;;;;;;;;5103092;28;20049;-67
2023/01/07 12:52:31;;;;;;;6.28;1.20;;;;;;;;;;5105197;28;20384;-66
2023/01/07 12:55:13;;;;;;;3.33;1.40;;;;;;;;;;5093871;28;20097;-67
2023/01/07 12:57:41;;;;;;;3.05;1.02;;;;;;;;;;5094919;28;20083;-66
2023/01/07 13:00:16;;;;;;;2.75;1.20;;;;;;;;;;5103594;27;20840;-66
2023/01/07 13:02:47;;;;;;;5.22;1.30;;;;;;;;;;5099450;28;20042;-67
2023/01/07 13:05:21;;;;;;;3.17;1.50;;;;;;;;;;5102597;28;20040;-67
2023/01/07 13:07:53;;;;;;;3.58;1.25;;;;;;;;;;5102719;28;20052;-67
2023/01/07 13:10:26;;;;;;;2.22;1.30;;;;;;;;;;5102187;28;20032;-65
2023/01/07 13:12:56;;;;;;;2.75;1.30;;;;;;;;;;5103517;28;20047;-66
2023/01/07 13:15:26;;;;;;;2.55;1.05;;;;;;;;;;5104962;27;20044;-67
2023/01/07 13:17:53;;;;;;;3.63;1.33;;;;;;;;;;5106062;28;20042;-67
2023/01/07 13:20:34;;;;;;;3.40;1.40;;;;;;;;;;5104914;28;20054;-67
2023/01/07 13:23:01;;;;;;;3.15;1.25;;;;;;;;;;5105902;28;20043;-67
2023/01/07 13:25:28;;;;;;;3.40;1.35;;;;;;;;;;5094558;28;20091;-67
2023/01/07 13:28:01;;;;;;;6.43;1.33;;;;;;;;;;5102331;27;20043;-67
2023/01/07 13:30:42;;;;;;;5.70;1.30;;;;;;;;;;5094513;28;20027;-66
2023/01/07 13:33:14;;;;;;;4.22;1.60;;;;;;;;;;5105731;27;20042;-67
2023/01/07 13:35:45;;;;;;;3.20;1.40;;;;;;;;;;5105649;28;20043;-66
2023/01/07 13:38:37;;;;;;;3.80;1.50;;;;;;;;;;5104118;28;20119;-66
2023/01/07 13:41:22;;;;;;;22.77;2.42;;;;;;;;;;5091782;28;20056;-66
2023/01/07 13:43:48;;;;;;;3.85;1.50;;;;;;;;;;5092337;27;20487;-66
2023/01/07 13:46:17;;;;;;;4.93;1.80;;;;;;;;;;5107760;28;20356;-67
2023/01/07 13:48:48;;;;;;;3.78;2.08;;;;;;;;;;5096203;28;20456;-67
2023/01/07 13:51:15;;;;;;;4.45;1.77;;;;;;;;;;5091798;28;20078;-67
2023/01/07 13:53:44;;;;;;;4.65;2.05;;;;;;;;;;5109868;28;20123;-67
2023/01/07 13:56:17;;;;;;;3.40;1.50;;;;;;;;;;5108337;27;20040;-67
2023/01/07 13:58:45;;;;;;;2.97;1.45;;;;;;;;;;5105110;28;20132;-66
2023/01/07 14:01:18;;;;;;;3.80;1.65;;;;;;;;;;5106846;28;20041;-67
2023/01/07 14:03:48;;;;;;;3.40;1.90;;;;;;;;;;5105479;27;20043;-66
2023/01/07 14:06:20;;;;;;;4.85;2.45;;;;;;;;;;5105090;27;20047;-66
2023/01/07 14:08:54;;;;;;;4.35;2.10;;;;;;;;;;5106763;28;20413;-66
2023/01/07 14:11:20;;;;;;;;;;;;;;;;;;5104242;28;20104;-66
2023/01/07 14:13:53;;;;;;;5.65;1.95;;;;;;;;;;5106574;28;19927;-66
2023/01/07 14:16:19;;;;;;;;;;;;;;;;;;5107475;28;20035;-66
2023/01/07 14:18:51;;;;;;;4.07;2.08;;;;;;;;;;5106560;28;20469;-66
2023/01/07 14:21:19;;;;;;;6.38;2.53;;;;;;;;;;5106235;28;20415;-66
2023/01/07 14:23:59;;;;;;;4.82;1.85;;;;;;;;;;5098248;28;20052;-66
2023/01/07 14:26:32;;;;;;;4.47;2.15;;;;;;;;;;5105046;28;20045;-66
2023/01/07 14:29:17;;;;;;;3.95;2.20;;;;;;;;;;5097425;28;20094;-65
2023/01/07 14:31:44;;;;;;;6.10;2.63;;;;;;;;;;5106069;28;20040;-66
2023/01/07 14:34:19;;;;;;;4.38;2.40;;;;;;;;;;5105879;28;20047;-66
2023/01/07 14:37:03;;;;;;;15.48;2.15;;;;;;;;;;5106662;28;20331;-66